<?xml version="1.0" encoding="UTF-8" standalone="no" ?>
<gpx xmlns="http://www.topografix.com/GPX/1/1" xmlns:xsi="http://www.w3.org/2001/XMLSchema-instance" xsi:schemaLocation="http://www.topografix.com/GPX/1/1 http://www.topografix.com/GPX/1/1/gpx.xsd" version="1.1" creator="VisuGPX - https://www.visugpx.com">
  <metadata>
    <name>121117ROBDolmenGazo</name>
    <desc><![CDATA[Première sortie depuis la fin des vacances scolaires - 210 m de dénivelé pour 16 km]]></desc>
  </metadata>
  <trk>
    <name><![CDATA[121117ROBDolmenGazo]]></name>
    <cmt><![CDATA[HR decrease: 120/84/36]]></cmt>
    <trkseg>
      <trkpt lat="43.40405" lon="6.06543">
        <ele>243.80000305176</ele>
        <time>2012-11-17T13:05:02Z</time>
      </trkpt>
      <trkpt lat="43.40401" lon="6.06535">
        <ele>243.80000305176</ele>
        <time>2012-11-17T13:05:11Z</time>
      </trkpt>
      <trkpt lat="43.40404" lon="6.06502">
        <ele>243.80000305176</ele>
        <time>2012-11-17T13:05:26Z</time>
      </trkpt>
      <trkpt lat="43.40411" lon="6.06487">
        <ele>243.80000305176</ele>
        <time>2012-11-17T13:05:33Z</time>
      </trkpt>
      <trkpt lat="43.40421" lon="6.06484">
        <ele>243.80000305176</ele>
        <time>2012-11-17T13:05:37Z</time>
      </trkpt>
      <trkpt lat="43.4044" lon="6.06492">
        <ele>243.80000305176</ele>
        <time>2012-11-17T13:05:43Z</time>
      </trkpt>
      <trkpt lat="43.40467" lon="6.06497">
        <ele>243.80000305176</ele>
        <time>2012-11-17T13:05:50Z</time>
      </trkpt>
      <trkpt lat="43.40482" lon="6.06499">
        <ele>243.39999389648</ele>
        <time>2012-11-17T13:05:54Z</time>
      </trkpt>
      <trkpt lat="43.40572" lon="6.06528">
        <ele>239.60000610352</ele>
        <time>2012-11-17T13:06:18Z</time>
      </trkpt>
      <trkpt lat="43.40575" lon="6.06528">
        <ele>239.60000610352</ele>
        <time>2012-11-17T13:06:35Z</time>
      </trkpt>
      <trkpt lat="43.40616" lon="6.06531">
        <ele>237</ele>
        <time>2012-11-17T13:06:47Z</time>
      </trkpt>
      <trkpt lat="43.40633" lon="6.065">
        <ele>235.39999389648</ele>
        <time>2012-11-17T13:06:55Z</time>
      </trkpt>
      <trkpt lat="43.40645" lon="6.06485">
        <ele>235.39999389648</ele>
        <time>2012-11-17T13:06:58Z</time>
      </trkpt>
      <trkpt lat="43.4065" lon="6.06479">
        <ele>235</ele>
        <time>2012-11-17T13:06:59Z</time>
      </trkpt>
      <trkpt lat="43.40676" lon="6.06451">
        <ele>233.19999694824</ele>
        <time>2012-11-17T13:07:04Z</time>
      </trkpt>
      <trkpt lat="43.407" lon="6.06433">
        <ele>231.60000610352</ele>
        <time>2012-11-17T13:07:08Z</time>
      </trkpt>
      <trkpt lat="43.40724" lon="6.06427">
        <ele>229.80000305176</ele>
        <time>2012-11-17T13:07:12Z</time>
      </trkpt>
      <trkpt lat="43.40761" lon="6.06425">
        <ele>228.39999389648</ele>
        <time>2012-11-17T13:07:19Z</time>
      </trkpt>
      <trkpt lat="43.40787" lon="6.06418">
        <ele>226.80000305176</ele>
        <time>2012-11-17T13:07:25Z</time>
      </trkpt>
      <trkpt lat="43.40805" lon="6.06418">
        <ele>226.80000305176</ele>
        <time>2012-11-17T13:07:30Z</time>
      </trkpt>
      <trkpt lat="43.40826" lon="6.06424">
        <ele>226.80000305176</ele>
        <time>2012-11-17T13:07:36Z</time>
      </trkpt>
      <trkpt lat="43.40837" lon="6.06422">
        <ele>226.80000305176</ele>
        <time>2012-11-17T13:07:39Z</time>
      </trkpt>
      <trkpt lat="43.4087" lon="6.06395">
        <ele>226.80000305176</ele>
        <time>2012-11-17T13:07:49Z</time>
      </trkpt>
      <trkpt lat="43.40936" lon="6.06312">
        <ele>226.80000305176</ele>
        <time>2012-11-17T13:08:12Z</time>
      </trkpt>
      <trkpt lat="43.40962" lon="6.06295">
        <ele>226.80000305176</ele>
        <time>2012-11-17T13:08:19Z</time>
      </trkpt>
      <trkpt lat="43.40983" lon="6.06284">
        <ele>226.80000305176</ele>
        <time>2012-11-17T13:08:25Z</time>
      </trkpt>
      <trkpt lat="43.41032" lon="6.06269">
        <ele>226.80000305176</ele>
        <time>2012-11-17T13:08:40Z</time>
      </trkpt>
      <trkpt lat="43.41192" lon="6.0622">
        <ele>228.80000305176</ele>
        <time>2012-11-17T13:09:25Z</time>
      </trkpt>
      <trkpt lat="43.41204" lon="6.06172">
        <ele>228.80000305176</ele>
        <time>2012-11-17T13:09:37Z</time>
      </trkpt>
      <trkpt lat="43.412" lon="6.06126">
        <ele>228.80000305176</ele>
        <time>2012-11-17T13:09:46Z</time>
      </trkpt>
      <trkpt lat="43.41208" lon="6.06115">
        <ele>228.80000305176</ele>
        <time>2012-11-17T13:09:49Z</time>
      </trkpt>
      <trkpt lat="43.41225" lon="6.06106">
        <ele>229.19999694824</ele>
        <time>2012-11-17T13:09:54Z</time>
      </trkpt>
      <trkpt lat="43.41297" lon="6.06063">
        <ele>233</ele>
        <time>2012-11-17T13:10:18Z</time>
      </trkpt>
      <trkpt lat="43.41309" lon="6.06064">
        <ele>233</ele>
        <time>2012-11-17T13:10:22Z</time>
      </trkpt>
      <trkpt lat="43.41364" lon="6.06122">
        <ele>234.60000610352</ele>
        <time>2012-11-17T13:10:43Z</time>
      </trkpt>
      <trkpt lat="43.41386" lon="6.06146">
        <ele>235</ele>
        <time>2012-11-17T13:10:52Z</time>
      </trkpt>
      <trkpt lat="43.41404" lon="6.06162">
        <ele>237.19999694824</ele>
        <time>2012-11-17T13:10:59Z</time>
      </trkpt>
      <trkpt lat="43.4142" lon="6.06172">
        <ele>237.60000610352</ele>
        <time>2012-11-17T13:11:05Z</time>
      </trkpt>
      <trkpt lat="43.41439" lon="6.06178">
        <ele>239.19999694824</ele>
        <time>2012-11-17T13:11:12Z</time>
      </trkpt>
      <trkpt lat="43.41496" lon="6.06192">
        <ele>239.19999694824</ele>
        <time>2012-11-17T13:11:31Z</time>
      </trkpt>
      <trkpt lat="43.41518" lon="6.06189">
        <ele>240</ele>
        <time>2012-11-17T13:11:38Z</time>
      </trkpt>
      <trkpt lat="43.41527" lon="6.06188">
        <ele>241.39999389648</ele>
        <time>2012-11-17T13:11:41Z</time>
      </trkpt>
      <trkpt lat="43.41554" lon="6.06174">
        <ele>242.19999694824</ele>
        <time>2012-11-17T13:11:52Z</time>
      </trkpt>
      <trkpt lat="43.41563" lon="6.06173">
        <ele>243.39999389648</ele>
        <time>2012-11-17T13:11:58Z</time>
      </trkpt>
      <trkpt lat="43.41572" lon="6.06177">
        <ele>243.39999389648</ele>
        <time>2012-11-17T13:12:05Z</time>
      </trkpt>
      <trkpt lat="43.4158" lon="6.06183">
        <ele>243.39999389648</ele>
        <time>2012-11-17T13:12:10Z</time>
      </trkpt>
      <trkpt lat="43.41589" lon="6.06201">
        <ele>243.39999389648</ele>
        <time>2012-11-17T13:12:16Z</time>
      </trkpt>
      <trkpt lat="43.41595" lon="6.06201">
        <ele>243.39999389648</ele>
        <time>2012-11-17T13:12:19Z</time>
      </trkpt>
      <trkpt lat="43.41605" lon="6.06166">
        <ele>243.39999389648</ele>
        <time>2012-11-17T13:12:26Z</time>
      </trkpt>
      <trkpt lat="43.41626" lon="6.06135">
        <ele>243.39999389648</ele>
        <time>2012-11-17T13:12:33Z</time>
      </trkpt>
      <trkpt lat="43.41627" lon="6.06121">
        <ele>243.39999389648</ele>
        <time>2012-11-17T13:12:36Z</time>
      </trkpt>
      <trkpt lat="43.41618" lon="6.06093">
        <ele>243.39999389648</ele>
        <time>2012-11-17T13:12:41Z</time>
      </trkpt>
      <trkpt lat="43.41616" lon="6.06062">
        <ele>243.39999389648</ele>
        <time>2012-11-17T13:12:46Z</time>
      </trkpt>
      <trkpt lat="43.41618" lon="6.06044">
        <ele>243.39999389648</ele>
        <time>2012-11-17T13:12:49Z</time>
      </trkpt>
      <trkpt lat="43.41634" lon="6.05946">
        <ele>245.39999389648</ele>
        <time>2012-11-17T13:13:08Z</time>
      </trkpt>
      <trkpt lat="43.41645" lon="6.05835">
        <ele>247.60000610352</ele>
        <time>2012-11-17T13:13:32Z</time>
      </trkpt>
      <trkpt lat="43.41646" lon="6.0572">
        <ele>247.60000610352</ele>
        <time>2012-11-17T13:13:55Z</time>
      </trkpt>
      <trkpt lat="43.4164" lon="6.05641">
        <ele>247.60000610352</ele>
        <time>2012-11-17T13:14:09Z</time>
      </trkpt>
      <trkpt lat="43.41627" lon="6.05562">
        <ele>247.60000610352</ele>
        <time>2012-11-17T13:14:22Z</time>
      </trkpt>
      <trkpt lat="43.41594" lon="6.0544">
        <ele>247.60000610352</ele>
        <time>2012-11-17T13:14:42Z</time>
      </trkpt>
      <trkpt lat="43.41567" lon="6.05361">
        <ele>247.60000610352</ele>
        <time>2012-11-17T13:14:56Z</time>
      </trkpt>
      <trkpt lat="43.41538" lon="6.0527">
        <ele>246.80000305176</ele>
        <time>2012-11-17T13:15:11Z</time>
      </trkpt>
      <trkpt lat="43.41535" lon="6.05264">
        <ele>246.39999389648</ele>
        <time>2012-11-17T13:15:12Z</time>
      </trkpt>
      <trkpt lat="43.41496" lon="6.05178">
        <ele>245.19999694824</ele>
        <time>2012-11-17T13:15:26Z</time>
      </trkpt>
      <trkpt lat="43.41496" lon="6.05168">
        <ele>244.19999694824</ele>
        <time>2012-11-17T13:15:28Z</time>
      </trkpt>
      <trkpt lat="43.415" lon="6.05161">
        <ele>243.39999389648</ele>
        <time>2012-11-17T13:15:30Z</time>
      </trkpt>
      <trkpt lat="43.41521" lon="6.05155">
        <ele>243.39999389648</ele>
        <time>2012-11-17T13:15:38Z</time>
      </trkpt>
      <trkpt lat="43.41537" lon="6.05153">
        <ele>243.39999389648</ele>
        <time>2012-11-17T13:15:43Z</time>
      </trkpt>
      <trkpt lat="43.41546" lon="6.05154">
        <ele>243.39999389648</ele>
        <time>2012-11-17T13:15:46Z</time>
      </trkpt>
      <trkpt lat="43.4164" lon="6.05167">
        <ele>248.60000610352</ele>
        <time>2012-11-17T13:16:27Z</time>
      </trkpt>
      <trkpt lat="43.4166" lon="6.05167">
        <ele>250</ele>
        <time>2012-11-17T13:16:36Z</time>
      </trkpt>
      <trkpt lat="43.4167" lon="6.05163">
        <ele>251.39999389648</ele>
        <time>2012-11-17T13:16:41Z</time>
      </trkpt>
      <trkpt lat="43.41673" lon="6.05159">
        <ele>252.39999389648</ele>
        <time>2012-11-17T13:16:43Z</time>
      </trkpt>
      <trkpt lat="43.41684" lon="6.05142">
        <ele>254.39999389648</ele>
        <time>2012-11-17T13:16:50Z</time>
      </trkpt>
      <trkpt lat="43.41708" lon="6.0512">
        <ele>254.39999389648</ele>
        <time>2012-11-17T13:17:02Z</time>
      </trkpt>
      <trkpt lat="43.41729" lon="6.05109">
        <ele>256.39999389648</ele>
        <time>2012-11-17T13:17:12Z</time>
      </trkpt>
      <trkpt lat="43.41736" lon="6.05115">
        <ele>256.39999389648</ele>
        <time>2012-11-17T13:17:16Z</time>
      </trkpt>
      <trkpt lat="43.41735" lon="6.05134">
        <ele>258.60000610352</ele>
        <time>2012-11-17T13:17:22Z</time>
      </trkpt>
      <trkpt lat="43.41737" lon="6.05168">
        <ele>258.60000610352</ele>
        <time>2012-11-17T13:17:33Z</time>
      </trkpt>
      <trkpt lat="43.41739" lon="6.05174">
        <ele>258.60000610352</ele>
        <time>2012-11-17T13:17:35Z</time>
      </trkpt>
      <trkpt lat="43.41747" lon="6.05179">
        <ele>258.60000610352</ele>
        <time>2012-11-17T13:17:39Z</time>
      </trkpt>
      <trkpt lat="43.41796" lon="6.05183">
        <ele>260.79998779297</ele>
        <time>2012-11-17T13:18:02Z</time>
      </trkpt>
      <trkpt lat="43.41848" lon="6.05184">
        <ele>262.79998779297</ele>
        <time>2012-11-17T13:18:27Z</time>
      </trkpt>
      <trkpt lat="43.41876" lon="6.05178">
        <ele>265</ele>
        <time>2012-11-17T13:18:42Z</time>
      </trkpt>
      <trkpt lat="43.4189" lon="6.0518">
        <ele>267</ele>
        <time>2012-11-17T13:18:56Z</time>
      </trkpt>
      <trkpt lat="43.41895" lon="6.05159">
        <ele>267.39999389648</ele>
        <time>2012-11-17T13:19:02Z</time>
      </trkpt>
      <trkpt lat="43.41899" lon="6.05158">
        <ele>268.20001220703</ele>
        <time>2012-11-17T13:19:04Z</time>
      </trkpt>
      <trkpt lat="43.41902" lon="6.0516">
        <ele>268.60000610352</ele>
        <time>2012-11-17T13:19:05Z</time>
      </trkpt>
      <trkpt lat="43.41914" lon="6.05151">
        <ele>269.20001220703</ele>
        <time>2012-11-17T13:19:09Z</time>
      </trkpt>
      <trkpt lat="43.41951" lon="6.05139">
        <ele>270.39999389648</ele>
        <time>2012-11-17T13:19:19Z</time>
      </trkpt>
      <trkpt lat="43.41975" lon="6.05132">
        <ele>271.20001220703</ele>
        <time>2012-11-17T13:19:29Z</time>
      </trkpt>
      <trkpt lat="43.41991" lon="6.05131">
        <ele>272.39999389648</ele>
        <time>2012-11-17T13:19:36Z</time>
      </trkpt>
      <trkpt lat="43.41994" lon="6.0513">
        <ele>273.20001220703</ele>
        <time>2012-11-17T13:19:38Z</time>
      </trkpt>
      <trkpt lat="43.42042" lon="6.05115">
        <ele>273.20001220703</ele>
        <time>2012-11-17T13:19:57Z</time>
      </trkpt>
      <trkpt lat="43.42073" lon="6.05111">
        <ele>275.20001220703</ele>
        <time>2012-11-17T13:20:11Z</time>
      </trkpt>
      <trkpt lat="43.42089" lon="6.05111">
        <ele>275.20001220703</ele>
        <time>2012-11-17T13:20:18Z</time>
      </trkpt>
      <trkpt lat="43.42123" lon="6.05116">
        <ele>277.20001220703</ele>
        <time>2012-11-17T13:20:33Z</time>
      </trkpt>
      <trkpt lat="43.42136" lon="6.05131">
        <ele>279</ele>
        <time>2012-11-17T13:20:40Z</time>
      </trkpt>
      <trkpt lat="43.42147" lon="6.05147">
        <ele>279.39999389648</ele>
        <time>2012-11-17T13:20:47Z</time>
      </trkpt>
      <trkpt lat="43.42162" lon="6.05159">
        <ele>279.39999389648</ele>
        <time>2012-11-17T13:20:54Z</time>
      </trkpt>
      <trkpt lat="43.42178" lon="6.0517">
        <ele>279.39999389648</ele>
        <time>2012-11-17T13:21:03Z</time>
      </trkpt>
      <trkpt lat="43.42193" lon="6.05168">
        <ele>280.20001220703</ele>
        <time>2012-11-17T13:21:09Z</time>
      </trkpt>
      <trkpt lat="43.42195" lon="6.05168">
        <ele>281.39999389648</ele>
        <time>2012-11-17T13:21:56Z</time>
      </trkpt>
      <trkpt lat="43.42197" lon="6.05171">
        <ele>281.39999389648</ele>
        <time>2012-11-17T13:22:31Z</time>
      </trkpt>
      <trkpt lat="43.42245" lon="6.05208">
        <ele>285.60000610352</ele>
        <time>2012-11-17T13:23:02Z</time>
      </trkpt>
      <trkpt lat="43.42265" lon="6.05209">
        <ele>285.60000610352</ele>
        <time>2012-11-17T13:23:13Z</time>
      </trkpt>
      <trkpt lat="43.42286" lon="6.05192">
        <ele>287.60000610352</ele>
        <time>2012-11-17T13:23:25Z</time>
      </trkpt>
      <trkpt lat="43.42305" lon="6.05205">
        <ele>287.60000610352</ele>
        <time>2012-11-17T13:23:34Z</time>
      </trkpt>
      <trkpt lat="43.42312" lon="6.05205">
        <ele>287.60000610352</ele>
        <time>2012-11-17T13:23:37Z</time>
      </trkpt>
      <trkpt lat="43.42324" lon="6.05201">
        <ele>288</ele>
        <time>2012-11-17T13:23:43Z</time>
      </trkpt>
      <trkpt lat="43.42327" lon="6.05199">
        <ele>288.79998779297</ele>
        <time>2012-11-17T13:23:45Z</time>
      </trkpt>
      <trkpt lat="43.42342" lon="6.05198">
        <ele>290.20001220703</ele>
        <time>2012-11-17T13:23:54Z</time>
      </trkpt>
      <trkpt lat="43.42357" lon="6.05199">
        <ele>291.79998779297</ele>
        <time>2012-11-17T13:24:07Z</time>
      </trkpt>
      <trkpt lat="43.42362" lon="6.05191">
        <ele>293.39999389648</ele>
        <time>2012-11-17T13:24:13Z</time>
      </trkpt>
      <trkpt lat="43.42376" lon="6.05187">
        <ele>294.79998779297</ele>
        <time>2012-11-17T13:24:23Z</time>
      </trkpt>
      <trkpt lat="43.42377" lon="6.05186">
        <ele>296</ele>
        <time>2012-11-17T13:24:29Z</time>
      </trkpt>
      <trkpt lat="43.4238" lon="6.05187">
        <ele>296</ele>
        <time>2012-11-17T13:24:35Z</time>
      </trkpt>
      <trkpt lat="43.42382" lon="6.05187">
        <ele>296</ele>
        <time>2012-11-17T13:24:37Z</time>
      </trkpt>
      <trkpt lat="43.42393" lon="6.05175">
        <ele>297.79998779297</ele>
        <time>2012-11-17T13:24:49Z</time>
      </trkpt>
      <trkpt lat="43.42394" lon="6.05174">
        <ele>298.20001220703</ele>
        <time>2012-11-17T13:24:50Z</time>
      </trkpt>
      <trkpt lat="43.42394" lon="6.05175">
        <ele>298.20001220703</ele>
        <time>2012-11-17T13:26:21Z</time>
      </trkpt>
      <trkpt lat="43.42394" lon="6.05176">
        <ele>300.20001220703</ele>
        <time>2012-11-17T13:27:32Z</time>
      </trkpt>
      <trkpt lat="43.42395" lon="6.05178">
        <ele>300.20001220703</ele>
        <time>2012-11-17T13:28:10Z</time>
      </trkpt>
      <trkpt lat="43.42401" lon="6.052">
        <ele>300.20001220703</ele>
        <time>2012-11-17T13:28:17Z</time>
      </trkpt>
      <trkpt lat="43.42403" lon="6.05209">
        <ele>298.60000610352</ele>
        <time>2012-11-17T13:28:19Z</time>
      </trkpt>
      <trkpt lat="43.4241" lon="6.0522">
        <ele>297</ele>
        <time>2012-11-17T13:28:22Z</time>
      </trkpt>
      <trkpt lat="43.42417" lon="6.05225">
        <ele>296</ele>
        <time>2012-11-17T13:28:24Z</time>
      </trkpt>
      <trkpt lat="43.42446" lon="6.05221">
        <ele>295.39999389648</ele>
        <time>2012-11-17T13:28:37Z</time>
      </trkpt>
      <trkpt lat="43.42466" lon="6.05213">
        <ele>297.60000610352</ele>
        <time>2012-11-17T13:28:47Z</time>
      </trkpt>
      <trkpt lat="43.42467" lon="6.05212">
        <ele>297.60000610352</ele>
        <time>2012-11-17T13:28:51Z</time>
      </trkpt>
      <trkpt lat="43.42467" lon="6.05212">
        <ele>297.60000610352</ele>
        <time>2012-11-17T13:29:03Z</time>
      </trkpt>
      <trkpt lat="43.42467" lon="6.05212">
        <ele>297.60000610352</ele>
        <time>2012-11-17T13:29:31Z</time>
      </trkpt>
      <trkpt lat="43.42485" lon="6.05216">
        <ele>297.60000610352</ele>
        <time>2012-11-17T13:30:07Z</time>
      </trkpt>
      <trkpt lat="43.42496" lon="6.05223">
        <ele>297.60000610352</ele>
        <time>2012-11-17T13:30:12Z</time>
      </trkpt>
      <trkpt lat="43.42516" lon="6.05225">
        <ele>297.60000610352</ele>
        <time>2012-11-17T13:30:22Z</time>
      </trkpt>
      <trkpt lat="43.42525" lon="6.05224">
        <ele>297.60000610352</ele>
        <time>2012-11-17T13:30:26Z</time>
      </trkpt>
      <trkpt lat="43.42538" lon="6.05223">
        <ele>297.60000610352</ele>
        <time>2012-11-17T13:30:33Z</time>
      </trkpt>
      <trkpt lat="43.42556" lon="6.05216">
        <ele>299</ele>
        <time>2012-11-17T13:30:40Z</time>
      </trkpt>
      <trkpt lat="43.42557" lon="6.05216">
        <ele>299.39999389648</ele>
        <time>2012-11-17T13:30:41Z</time>
      </trkpt>
      <trkpt lat="43.42559" lon="6.05217">
        <ele>300</ele>
        <time>2012-11-17T13:30:54Z</time>
      </trkpt>
      <trkpt lat="43.4257" lon="6.05219">
        <ele>300</ele>
        <time>2012-11-17T13:31:03Z</time>
      </trkpt>
      <trkpt lat="43.42604" lon="6.05244">
        <ele>300</ele>
        <time>2012-11-17T13:31:28Z</time>
      </trkpt>
      <trkpt lat="43.42623" lon="6.05258">
        <ele>301.79998779297</ele>
        <time>2012-11-17T13:31:39Z</time>
      </trkpt>
      <trkpt lat="43.42633" lon="6.05263">
        <ele>302.20001220703</ele>
        <time>2012-11-17T13:31:48Z</time>
      </trkpt>
      <trkpt lat="43.42657" lon="6.053">
        <ele>304.20001220703</ele>
        <time>2012-11-17T13:32:40Z</time>
      </trkpt>
      <trkpt lat="43.42663" lon="6.05312">
        <ele>304.20001220703</ele>
        <time>2012-11-17T13:32:46Z</time>
      </trkpt>
      <trkpt lat="43.42676" lon="6.05329">
        <ele>306.20001220703</ele>
        <time>2012-11-17T13:32:56Z</time>
      </trkpt>
      <trkpt lat="43.42684" lon="6.0534">
        <ele>306.20001220703</ele>
        <time>2012-11-17T13:33:05Z</time>
      </trkpt>
      <trkpt lat="43.42696" lon="6.05342">
        <ele>308.20001220703</ele>
        <time>2012-11-17T13:33:21Z</time>
      </trkpt>
      <trkpt lat="43.42701" lon="6.05342">
        <ele>308.20001220703</ele>
        <time>2012-11-17T13:33:26Z</time>
      </trkpt>
      <trkpt lat="43.42713" lon="6.0534">
        <ele>308.20001220703</ele>
        <time>2012-11-17T13:33:33Z</time>
      </trkpt>
      <trkpt lat="43.4272" lon="6.05343">
        <ele>308.20001220703</ele>
        <time>2012-11-17T13:33:38Z</time>
      </trkpt>
      <trkpt lat="43.4272" lon="6.05359">
        <ele>310.39999389648</ele>
        <time>2012-11-17T13:33:46Z</time>
      </trkpt>
      <trkpt lat="43.42717" lon="6.05383">
        <ele>310.39999389648</ele>
        <time>2012-11-17T13:33:58Z</time>
      </trkpt>
      <trkpt lat="43.42731" lon="6.05433">
        <ele>314.60000610352</ele>
        <time>2012-11-17T13:34:22Z</time>
      </trkpt>
      <trkpt lat="43.42731" lon="6.05444">
        <ele>314.60000610352</ele>
        <time>2012-11-17T13:34:27Z</time>
      </trkpt>
      <trkpt lat="43.42729" lon="6.05455">
        <ele>315</ele>
        <time>2012-11-17T13:34:33Z</time>
      </trkpt>
      <trkpt lat="43.42724" lon="6.05468">
        <ele>316.60000610352</ele>
        <time>2012-11-17T13:34:39Z</time>
      </trkpt>
      <trkpt lat="43.42729" lon="6.0552">
        <ele>318.60000610352</ele>
        <time>2012-11-17T13:35:00Z</time>
      </trkpt>
      <trkpt lat="43.4273" lon="6.05537">
        <ele>319</ele>
        <time>2012-11-17T13:35:07Z</time>
      </trkpt>
      <trkpt lat="43.42741" lon="6.05572">
        <ele>321.20001220703</ele>
        <time>2012-11-17T13:35:21Z</time>
      </trkpt>
      <trkpt lat="43.42747" lon="6.05577">
        <ele>323</ele>
        <time>2012-11-17T13:35:25Z</time>
      </trkpt>
      <trkpt lat="43.42752" lon="6.05586">
        <ele>323</ele>
        <time>2012-11-17T13:35:29Z</time>
      </trkpt>
      <trkpt lat="43.42755" lon="6.05595">
        <ele>324.60000610352</ele>
        <time>2012-11-17T13:35:33Z</time>
      </trkpt>
      <trkpt lat="43.42746" lon="6.05628">
        <ele>327</ele>
        <time>2012-11-17T13:35:48Z</time>
      </trkpt>
      <trkpt lat="43.42735" lon="6.05641">
        <ele>329.20001220703</ele>
        <time>2012-11-17T13:36:00Z</time>
      </trkpt>
      <trkpt lat="43.42735" lon="6.05641">
        <ele>329.20001220703</ele>
        <time>2012-11-17T13:36:45Z</time>
      </trkpt>
      <trkpt lat="43.42729" lon="6.05648">
        <ele>329.20001220703</ele>
        <time>2012-11-17T13:36:50Z</time>
      </trkpt>
      <trkpt lat="43.42721" lon="6.05668">
        <ele>329.20001220703</ele>
        <time>2012-11-17T13:36:57Z</time>
      </trkpt>
      <trkpt lat="43.42718" lon="6.05672">
        <ele>329.60000610352</ele>
        <time>2012-11-17T13:36:59Z</time>
      </trkpt>
      <trkpt lat="43.42706" lon="6.05686">
        <ele>331.20001220703</ele>
        <time>2012-11-17T13:37:08Z</time>
      </trkpt>
      <trkpt lat="43.42704" lon="6.05698">
        <ele>333.20001220703</ele>
        <time>2012-11-17T13:37:14Z</time>
      </trkpt>
      <trkpt lat="43.42704" lon="6.05699">
        <ele>333.20001220703</ele>
        <time>2012-11-17T13:37:26Z</time>
      </trkpt>
      <trkpt lat="43.42703" lon="6.05701">
        <ele>333.20001220703</ele>
        <time>2012-11-17T13:37:33Z</time>
      </trkpt>
      <trkpt lat="43.42701" lon="6.05711">
        <ele>334</ele>
        <time>2012-11-17T13:37:41Z</time>
      </trkpt>
      <trkpt lat="43.42701" lon="6.05711">
        <ele>335.20001220703</ele>
        <time>2012-11-17T13:38:00Z</time>
      </trkpt>
      <trkpt lat="43.42698" lon="6.05732">
        <ele>335.20001220703</ele>
        <time>2012-11-17T13:38:56Z</time>
      </trkpt>
      <trkpt lat="43.42706" lon="6.05736">
        <ele>337.39999389648</ele>
        <time>2012-11-17T13:39:02Z</time>
      </trkpt>
      <trkpt lat="43.42715" lon="6.05737">
        <ele>337.39999389648</ele>
        <time>2012-11-17T13:39:11Z</time>
      </trkpt>
      <trkpt lat="43.42751" lon="6.05741">
        <ele>337.39999389648</ele>
        <time>2012-11-17T13:39:30Z</time>
      </trkpt>
      <trkpt lat="43.4277" lon="6.05729">
        <ele>337.39999389648</ele>
        <time>2012-11-17T13:39:41Z</time>
      </trkpt>
      <trkpt lat="43.42788" lon="6.05737">
        <ele>339.39999389648</ele>
        <time>2012-11-17T13:39:53Z</time>
      </trkpt>
      <trkpt lat="43.42793" lon="6.05742">
        <ele>339.39999389648</ele>
        <time>2012-11-17T13:39:57Z</time>
      </trkpt>
      <trkpt lat="43.42801" lon="6.05743">
        <ele>339.39999389648</ele>
        <time>2012-11-17T13:40:01Z</time>
      </trkpt>
      <trkpt lat="43.42805" lon="6.05741">
        <ele>339.39999389648</ele>
        <time>2012-11-17T13:40:03Z</time>
      </trkpt>
      <trkpt lat="43.4283" lon="6.05732">
        <ele>339.39999389648</ele>
        <time>2012-11-17T13:40:15Z</time>
      </trkpt>
      <trkpt lat="43.42839" lon="6.05723">
        <ele>339.39999389648</ele>
        <time>2012-11-17T13:40:22Z</time>
      </trkpt>
      <trkpt lat="43.42877" lon="6.05421">
        <ele>339.39999389648</ele>
        <time>2012-11-17T13:42:05Z</time>
      </trkpt>
      <trkpt lat="43.42892" lon="6.05294">
        <ele>343.60000610352</ele>
        <time>2012-11-17T13:42:59Z</time>
      </trkpt>
      <trkpt lat="43.42907" lon="6.0517">
        <ele>343.60000610352</ele>
        <time>2012-11-17T13:43:34Z</time>
      </trkpt>
      <trkpt lat="43.42918" lon="6.05087">
        <ele>343.20001220703</ele>
        <time>2012-11-17T13:43:49Z</time>
      </trkpt>
      <trkpt lat="43.42918" lon="6.05073">
        <ele>341.79998779297</ele>
        <time>2012-11-17T13:43:52Z</time>
      </trkpt>
      <trkpt lat="43.42931" lon="6.04928">
        <ele>339.20001220703</ele>
        <time>2012-11-17T13:44:26Z</time>
      </trkpt>
      <trkpt lat="43.42922" lon="6.04917">
        <ele>338.79998779297</ele>
        <time>2012-11-17T13:44:32Z</time>
      </trkpt>
      <trkpt lat="43.4292" lon="6.04918">
        <ele>338.39999389648</ele>
        <time>2012-11-17T13:44:33Z</time>
      </trkpt>
      <trkpt lat="43.42917" lon="6.04918">
        <ele>337.60000610352</ele>
        <time>2012-11-17T13:44:35Z</time>
      </trkpt>
      <trkpt lat="43.42917" lon="6.04918">
        <ele>337.20001220703</ele>
        <time>2012-11-17T13:44:51Z</time>
      </trkpt>
      <trkpt lat="43.42883" lon="6.04921">
        <ele>337.20001220703</ele>
        <time>2012-11-17T13:45:04Z</time>
      </trkpt>
      <trkpt lat="43.4286" lon="6.04878">
        <ele>337.20001220703</ele>
        <time>2012-11-17T13:45:15Z</time>
      </trkpt>
      <trkpt lat="43.42855" lon="6.04871">
        <ele>337.20001220703</ele>
        <time>2012-11-17T13:45:17Z</time>
      </trkpt>
      <trkpt lat="43.42842" lon="6.04857">
        <ele>337.20001220703</ele>
        <time>2012-11-17T13:45:21Z</time>
      </trkpt>
      <trkpt lat="43.42833" lon="6.04853">
        <ele>337.20001220703</ele>
        <time>2012-11-17T13:45:23Z</time>
      </trkpt>
      <trkpt lat="43.42812" lon="6.0485">
        <ele>335.20001220703</ele>
        <time>2012-11-17T13:45:27Z</time>
      </trkpt>
      <trkpt lat="43.428" lon="6.04838">
        <ele>333.39999389648</ele>
        <time>2012-11-17T13:45:30Z</time>
      </trkpt>
      <trkpt lat="43.42799" lon="6.04837">
        <ele>332.60000610352</ele>
        <time>2012-11-17T13:45:31Z</time>
      </trkpt>
      <trkpt lat="43.42799" lon="6.04837">
        <ele>332.20001220703</ele>
        <time>2012-11-17T13:45:32Z</time>
      </trkpt>
      <trkpt lat="43.42798" lon="6.04837">
        <ele>330.60000610352</ele>
        <time>2012-11-17T13:45:53Z</time>
      </trkpt>
      <trkpt lat="43.4278" lon="6.04829">
        <ele>330.60000610352</ele>
        <time>2012-11-17T13:47:37Z</time>
      </trkpt>
      <trkpt lat="43.42773" lon="6.04823">
        <ele>330.60000610352</ele>
        <time>2012-11-17T13:47:41Z</time>
      </trkpt>
      <trkpt lat="43.42755" lon="6.04807">
        <ele>332.20001220703</ele>
        <time>2012-11-17T13:47:56Z</time>
      </trkpt>
      <trkpt lat="43.42744" lon="6.04813">
        <ele>332.79998779297</ele>
        <time>2012-11-17T13:48:04Z</time>
      </trkpt>
      <trkpt lat="43.42736" lon="6.04814">
        <ele>332.79998779297</ele>
        <time>2012-11-17T13:48:09Z</time>
      </trkpt>
      <trkpt lat="43.42714" lon="6.04808">
        <ele>332.79998779297</ele>
        <time>2012-11-17T13:48:22Z</time>
      </trkpt>
      <trkpt lat="43.42708" lon="6.04795">
        <ele>332.79998779297</ele>
        <time>2012-11-17T13:48:29Z</time>
      </trkpt>
      <trkpt lat="43.42707" lon="6.04783">
        <ele>332.79998779297</ele>
        <time>2012-11-17T13:48:35Z</time>
      </trkpt>
      <trkpt lat="43.42706" lon="6.04766">
        <ele>333.20001220703</ele>
        <time>2012-11-17T13:48:47Z</time>
      </trkpt>
      <trkpt lat="43.42706" lon="6.04766">
        <ele>334.79998779297</ele>
        <time>2012-11-17T13:49:07Z</time>
      </trkpt>
      <trkpt lat="43.42706" lon="6.04761">
        <ele>334.79998779297</ele>
        <time>2012-11-17T13:49:13Z</time>
      </trkpt>
      <trkpt lat="43.42702" lon="6.04728">
        <ele>337</ele>
        <time>2012-11-17T13:49:27Z</time>
      </trkpt>
      <trkpt lat="43.42699" lon="6.04647">
        <ele>339.79998779297</ele>
        <time>2012-11-17T13:50:07Z</time>
      </trkpt>
      <trkpt lat="43.42701" lon="6.04626">
        <ele>341</ele>
        <time>2012-11-17T13:50:17Z</time>
      </trkpt>
      <trkpt lat="43.42696" lon="6.04579">
        <ele>343.20001220703</ele>
        <time>2012-11-17T13:50:37Z</time>
      </trkpt>
      <trkpt lat="43.42689" lon="6.04548">
        <ele>344</ele>
        <time>2012-11-17T13:50:51Z</time>
      </trkpt>
      <trkpt lat="43.4268" lon="6.0453">
        <ele>345.20001220703</ele>
        <time>2012-11-17T13:50:58Z</time>
      </trkpt>
      <trkpt lat="43.42675" lon="6.04523">
        <ele>346.79998779297</ele>
        <time>2012-11-17T13:51:03Z</time>
      </trkpt>
      <trkpt lat="43.42675" lon="6.04522">
        <ele>347.20001220703</ele>
        <time>2012-11-17T13:51:06Z</time>
      </trkpt>
      <trkpt lat="43.42675" lon="6.04522">
        <ele>347.20001220703</ele>
        <time>2012-11-17T13:51:20Z</time>
      </trkpt>
      <trkpt lat="43.42668" lon="6.04503">
        <ele>347.60000610352</ele>
        <time>2012-11-17T13:51:35Z</time>
      </trkpt>
      <trkpt lat="43.42666" lon="6.04464">
        <ele>351.39999389648</ele>
        <time>2012-11-17T13:51:56Z</time>
      </trkpt>
      <trkpt lat="43.42666" lon="6.04461">
        <ele>351.39999389648</ele>
        <time>2012-11-17T13:52:07Z</time>
      </trkpt>
      <trkpt lat="43.42665" lon="6.04458">
        <ele>351.39999389648</ele>
        <time>2012-11-17T13:52:31Z</time>
      </trkpt>
      <trkpt lat="43.4266" lon="6.04428">
        <ele>353.60000610352</ele>
        <time>2012-11-17T13:52:44Z</time>
      </trkpt>
      <trkpt lat="43.4266" lon="6.0442">
        <ele>353.60000610352</ele>
        <time>2012-11-17T13:52:47Z</time>
      </trkpt>
      <trkpt lat="43.4266" lon="6.04416">
        <ele>354</ele>
        <time>2012-11-17T13:52:51Z</time>
      </trkpt>
      <trkpt lat="43.4266" lon="6.04416">
        <ele>355.79998779297</ele>
        <time>2012-11-17T13:53:03Z</time>
      </trkpt>
      <trkpt lat="43.42661" lon="6.04412">
        <ele>355.79998779297</ele>
        <time>2012-11-17T13:53:09Z</time>
      </trkpt>
      <trkpt lat="43.42662" lon="6.04385">
        <ele>355.79998779297</ele>
        <time>2012-11-17T13:53:21Z</time>
      </trkpt>
      <trkpt lat="43.42661" lon="6.04377">
        <ele>355.79998779297</ele>
        <time>2012-11-17T13:53:25Z</time>
      </trkpt>
      <trkpt lat="43.42656" lon="6.04366">
        <ele>357.79998779297</ele>
        <time>2012-11-17T13:55:07Z</time>
      </trkpt>
      <trkpt lat="43.42653" lon="6.04359">
        <ele>357.79998779297</ele>
        <time>2012-11-17T13:55:10Z</time>
      </trkpt>
      <trkpt lat="43.42653" lon="6.04331">
        <ele>359</ele>
        <time>2012-11-17T13:55:20Z</time>
      </trkpt>
      <trkpt lat="43.42657" lon="6.04319">
        <ele>359.79998779297</ele>
        <time>2012-11-17T13:55:25Z</time>
      </trkpt>
      <trkpt lat="43.42657" lon="6.04308">
        <ele>359.79998779297</ele>
        <time>2012-11-17T13:55:30Z</time>
      </trkpt>
      <trkpt lat="43.42647" lon="6.04281">
        <ele>361.79998779297</ele>
        <time>2012-11-17T13:55:44Z</time>
      </trkpt>
      <trkpt lat="43.42638" lon="6.04221">
        <ele>365.60000610352</ele>
        <time>2012-11-17T13:56:57Z</time>
      </trkpt>
      <trkpt lat="43.42637" lon="6.04216">
        <ele>366</ele>
        <time>2012-11-17T13:57:12Z</time>
      </trkpt>
      <trkpt lat="43.42635" lon="6.04198">
        <ele>366</ele>
        <time>2012-11-17T13:57:19Z</time>
      </trkpt>
      <trkpt lat="43.42651" lon="6.04164">
        <ele>368.20001220703</ele>
        <time>2012-11-17T13:57:35Z</time>
      </trkpt>
      <trkpt lat="43.42665" lon="6.04128">
        <ele>370</ele>
        <time>2012-11-17T13:57:52Z</time>
      </trkpt>
      <trkpt lat="43.42688" lon="6.04115">
        <ele>371.20001220703</ele>
        <time>2012-11-17T13:58:06Z</time>
      </trkpt>
      <trkpt lat="43.42694" lon="6.04106">
        <ele>372.39999389648</ele>
        <time>2012-11-17T13:58:11Z</time>
      </trkpt>
      <trkpt lat="43.42695" lon="6.04103">
        <ele>372.39999389648</ele>
        <time>2012-11-17T13:58:13Z</time>
      </trkpt>
      <trkpt lat="43.42693" lon="6.04073">
        <ele>372.39999389648</ele>
        <time>2012-11-17T13:58:25Z</time>
      </trkpt>
      <trkpt lat="43.42695" lon="6.04054">
        <ele>372.39999389648</ele>
        <time>2012-11-17T13:58:33Z</time>
      </trkpt>
      <trkpt lat="43.42701" lon="6.04035">
        <ele>372.39999389648</ele>
        <time>2012-11-17T13:58:41Z</time>
      </trkpt>
      <trkpt lat="43.42719" lon="6.04004">
        <ele>374.60000610352</ele>
        <time>2012-11-17T13:58:56Z</time>
      </trkpt>
      <trkpt lat="43.42727" lon="6.03972">
        <ele>374.60000610352</ele>
        <time>2012-11-17T13:59:11Z</time>
      </trkpt>
      <trkpt lat="43.42726" lon="6.03955">
        <ele>374.60000610352</ele>
        <time>2012-11-17T13:59:18Z</time>
      </trkpt>
      <trkpt lat="43.42719" lon="6.03951">
        <ele>374.60000610352</ele>
        <time>2012-11-17T13:59:23Z</time>
      </trkpt>
      <trkpt lat="43.42707" lon="6.03952">
        <ele>376.60000610352</ele>
        <time>2012-11-17T13:59:30Z</time>
      </trkpt>
      <trkpt lat="43.4269" lon="6.03934">
        <ele>376.60000610352</ele>
        <time>2012-11-17T13:59:44Z</time>
      </trkpt>
      <trkpt lat="43.42691" lon="6.03929">
        <ele>377.39999389648</ele>
        <time>2012-11-17T13:59:46Z</time>
      </trkpt>
      <trkpt lat="43.4269" lon="6.03929">
        <ele>378.20001220703</ele>
        <time>2012-11-17T13:59:48Z</time>
      </trkpt>
      <trkpt lat="43.4269" lon="6.03929">
        <ele>378.60000610352</ele>
        <time>2012-11-17T14:00:01Z</time>
      </trkpt>
      <trkpt lat="43.42693" lon="6.03917">
        <ele>378.60000610352</ele>
        <time>2012-11-17T14:00:09Z</time>
      </trkpt>
      <trkpt lat="43.42692" lon="6.03916">
        <ele>378.60000610352</ele>
        <time>2012-11-17T14:00:17Z</time>
      </trkpt>
      <trkpt lat="43.42686" lon="6.03899">
        <ele>380.60000610352</ele>
        <time>2012-11-17T14:00:46Z</time>
      </trkpt>
      <trkpt lat="43.42687" lon="6.03862">
        <ele>382.79998779297</ele>
        <time>2012-11-17T14:01:02Z</time>
      </trkpt>
      <trkpt lat="43.42683" lon="6.03838">
        <ele>384.79998779297</ele>
        <time>2012-11-17T14:01:14Z</time>
      </trkpt>
      <trkpt lat="43.42682" lon="6.03836">
        <ele>386.79998779297</ele>
        <time>2012-11-17T14:01:39Z</time>
      </trkpt>
      <trkpt lat="43.42683" lon="6.03823">
        <ele>386.79998779297</ele>
        <time>2012-11-17T14:03:54Z</time>
      </trkpt>
      <trkpt lat="43.42682" lon="6.0382">
        <ele>386.79998779297</ele>
        <time>2012-11-17T14:04:14Z</time>
      </trkpt>
      <trkpt lat="43.42676" lon="6.03815">
        <ele>388.60000610352</ele>
        <time>2012-11-17T14:04:19Z</time>
      </trkpt>
      <trkpt lat="43.42674" lon="6.03812">
        <ele>389.39999389648</ele>
        <time>2012-11-17T14:04:45Z</time>
      </trkpt>
      <trkpt lat="43.42673" lon="6.0381">
        <ele>389.79998779297</ele>
        <time>2012-11-17T14:04:46Z</time>
      </trkpt>
      <trkpt lat="43.42677" lon="6.03799">
        <ele>391</ele>
        <time>2012-11-17T14:04:53Z</time>
      </trkpt>
      <trkpt lat="43.42676" lon="6.03796">
        <ele>393</ele>
        <time>2012-11-17T14:05:03Z</time>
      </trkpt>
      <trkpt lat="43.42676" lon="6.03796">
        <ele>393</ele>
        <time>2012-11-17T14:05:27Z</time>
      </trkpt>
      <trkpt lat="43.42679" lon="6.03785">
        <ele>393</ele>
        <time>2012-11-17T14:05:36Z</time>
      </trkpt>
      <trkpt lat="43.42677" lon="6.03775">
        <ele>394.79998779297</ele>
        <time>2012-11-17T14:05:43Z</time>
      </trkpt>
      <trkpt lat="43.42677" lon="6.0377">
        <ele>395.20001220703</ele>
        <time>2012-11-17T14:05:55Z</time>
      </trkpt>
      <trkpt lat="43.42677" lon="6.03768">
        <ele>395.20001220703</ele>
        <time>2012-11-17T14:05:59Z</time>
      </trkpt>
      <trkpt lat="43.42677" lon="6.03768">
        <ele>395.20001220703</ele>
        <time>2012-11-17T14:06:16Z</time>
      </trkpt>
      <trkpt lat="43.4268" lon="6.03761">
        <ele>397.20001220703</ele>
        <time>2012-11-17T14:06:24Z</time>
      </trkpt>
      <trkpt lat="43.4268" lon="6.03752">
        <ele>397.60000610352</ele>
        <time>2012-11-17T14:06:47Z</time>
      </trkpt>
      <trkpt lat="43.4268" lon="6.03752">
        <ele>399.39999389648</ele>
        <time>2012-11-17T14:07:00Z</time>
      </trkpt>
      <trkpt lat="43.42682" lon="6.03739">
        <ele>399.39999389648</ele>
        <time>2012-11-17T14:07:06Z</time>
      </trkpt>
      <trkpt lat="43.4268" lon="6.03715">
        <ele>401.39999389648</ele>
        <time>2012-11-17T14:07:16Z</time>
      </trkpt>
      <trkpt lat="43.42678" lon="6.03708">
        <ele>401.39999389648</ele>
        <time>2012-11-17T14:07:20Z</time>
      </trkpt>
      <trkpt lat="43.42682" lon="6.03688">
        <ele>403.60000610352</ele>
        <time>2012-11-17T14:07:30Z</time>
      </trkpt>
      <trkpt lat="43.42683" lon="6.03655">
        <ele>405.60000610352</ele>
        <time>2012-11-17T14:07:57Z</time>
      </trkpt>
      <trkpt lat="43.42683" lon="6.03644">
        <ele>405.60000610352</ele>
        <time>2012-11-17T14:08:55Z</time>
      </trkpt>
      <trkpt lat="43.42661" lon="6.03594">
        <ele>405.60000610352</ele>
        <time>2012-11-17T14:09:21Z</time>
      </trkpt>
      <trkpt lat="43.42646" lon="6.03515">
        <ele>407.79998779297</ele>
        <time>2012-11-17T14:09:58Z</time>
      </trkpt>
      <trkpt lat="43.42642" lon="6.03497">
        <ele>407.79998779297</ele>
        <time>2012-11-17T14:10:06Z</time>
      </trkpt>
      <trkpt lat="43.42636" lon="6.03481">
        <ele>407.79998779297</ele>
        <time>2012-11-17T14:10:13Z</time>
      </trkpt>
      <trkpt lat="43.42632" lon="6.03474">
        <ele>407.79998779297</ele>
        <time>2012-11-17T14:10:19Z</time>
      </trkpt>
      <trkpt lat="43.42594" lon="6.03445">
        <ele>403.60000610352</ele>
        <time>2012-11-17T14:10:34Z</time>
      </trkpt>
      <trkpt lat="43.42594" lon="6.03445">
        <ele>403</ele>
        <time>2012-11-17T14:10:35Z</time>
      </trkpt>
      <trkpt lat="43.42596" lon="6.03447">
        <ele>403</ele>
        <time>2012-11-17T14:10:37Z</time>
      </trkpt>
      <trkpt lat="43.42596" lon="6.03447">
        <ele>403</ele>
        <time>2012-11-17T14:10:55Z</time>
      </trkpt>
      <trkpt lat="43.42566" lon="6.03401">
        <ele>400.79998779297</ele>
        <time>2012-11-17T14:11:28Z</time>
      </trkpt>
      <trkpt lat="43.42545" lon="6.03388">
        <ele>400.79998779297</ele>
        <time>2012-11-17T14:11:42Z</time>
      </trkpt>
      <trkpt lat="43.42548" lon="6.03364">
        <ele>400.79998779297</ele>
        <time>2012-11-17T14:11:57Z</time>
      </trkpt>
      <trkpt lat="43.4254" lon="6.03341">
        <ele>400.39999389648</ele>
        <time>2012-11-17T14:12:02Z</time>
      </trkpt>
      <trkpt lat="43.4254" lon="6.03336">
        <ele>400</ele>
        <time>2012-11-17T14:12:03Z</time>
      </trkpt>
      <trkpt lat="43.4254" lon="6.03294">
        <ele>397.79998779297</ele>
        <time>2012-11-17T14:12:11Z</time>
      </trkpt>
      <trkpt lat="43.42538" lon="6.03285">
        <ele>397</ele>
        <time>2012-11-17T14:12:13Z</time>
      </trkpt>
      <trkpt lat="43.42533" lon="6.03264">
        <ele>394.39999389648</ele>
        <time>2012-11-17T14:12:21Z</time>
      </trkpt>
      <trkpt lat="43.42532" lon="6.03263">
        <ele>394.39999389648</ele>
        <time>2012-11-17T14:12:25Z</time>
      </trkpt>
      <trkpt lat="43.42522" lon="6.03257">
        <ele>394.39999389648</ele>
        <time>2012-11-17T14:12:30Z</time>
      </trkpt>
      <trkpt lat="43.4251" lon="6.03254">
        <ele>394.39999389648</ele>
        <time>2012-11-17T14:12:37Z</time>
      </trkpt>
      <trkpt lat="43.42496" lon="6.03268">
        <ele>394.79998779297</ele>
        <time>2012-11-17T14:12:51Z</time>
      </trkpt>
      <trkpt lat="43.42495" lon="6.0327">
        <ele>395.39999389648</ele>
        <time>2012-11-17T14:12:52Z</time>
      </trkpt>
      <trkpt lat="43.42484" lon="6.03291">
        <ele>397.39999389648</ele>
        <time>2012-11-17T14:13:07Z</time>
      </trkpt>
      <trkpt lat="43.42473" lon="6.03301">
        <ele>398.60000610352</ele>
        <time>2012-11-17T14:13:18Z</time>
      </trkpt>
      <trkpt lat="43.42462" lon="6.03312">
        <ele>400.79998779297</ele>
        <time>2012-11-17T14:13:31Z</time>
      </trkpt>
      <trkpt lat="43.42452" lon="6.03313">
        <ele>403</ele>
        <time>2012-11-17T14:13:38Z</time>
      </trkpt>
      <trkpt lat="43.42435" lon="6.03315">
        <ele>407</ele>
        <time>2012-11-17T14:13:54Z</time>
      </trkpt>
      <trkpt lat="43.42417" lon="6.03324">
        <ele>409.79998779297</ele>
        <time>2012-11-17T14:14:12Z</time>
      </trkpt>
      <trkpt lat="43.4241" lon="6.03323">
        <ele>411.60000610352</ele>
        <time>2012-11-17T14:14:19Z</time>
      </trkpt>
      <trkpt lat="43.42397" lon="6.03326">
        <ele>413.60000610352</ele>
        <time>2012-11-17T14:14:30Z</time>
      </trkpt>
      <trkpt lat="43.42388" lon="6.03331">
        <ele>413.60000610352</ele>
        <time>2012-11-17T14:14:48Z</time>
      </trkpt>
      <trkpt lat="43.42386" lon="6.03332">
        <ele>413.60000610352</ele>
        <time>2012-11-17T14:17:35Z</time>
      </trkpt>
      <trkpt lat="43.42378" lon="6.03324">
        <ele>413.60000610352</ele>
        <time>2012-11-17T14:17:48Z</time>
      </trkpt>
      <trkpt lat="43.42378" lon="6.03299">
        <ele>413.60000610352</ele>
        <time>2012-11-17T14:17:59Z</time>
      </trkpt>
      <trkpt lat="43.42369" lon="6.03257">
        <ele>413.60000610352</ele>
        <time>2012-11-17T14:18:19Z</time>
      </trkpt>
      <trkpt lat="43.42371" lon="6.03226">
        <ele>413.60000610352</ele>
        <time>2012-11-17T14:18:33Z</time>
      </trkpt>
      <trkpt lat="43.42374" lon="6.03125">
        <ele>416.60000610352</ele>
        <time>2012-11-17T14:19:16Z</time>
      </trkpt>
      <trkpt lat="43.42375" lon="6.03117">
        <ele>417.79998779297</ele>
        <time>2012-11-17T14:19:19Z</time>
      </trkpt>
      <trkpt lat="43.42384" lon="6.03083">
        <ele>418.60000610352</ele>
        <time>2012-11-17T14:19:35Z</time>
      </trkpt>
      <trkpt lat="43.42385" lon="6.03066">
        <ele>419.79998779297</ele>
        <time>2012-11-17T14:19:43Z</time>
      </trkpt>
      <trkpt lat="43.42388" lon="6.03033">
        <ele>422.39999389648</ele>
        <time>2012-11-17T14:20:01Z</time>
      </trkpt>
      <trkpt lat="43.42382" lon="6.03004">
        <ele>425.79998779297</ele>
        <time>2012-11-17T14:20:18Z</time>
      </trkpt>
      <trkpt lat="43.42381" lon="6.02975">
        <ele>428.39999389648</ele>
        <time>2012-11-17T14:20:37Z</time>
      </trkpt>
      <trkpt lat="43.42381" lon="6.02954">
        <ele>428.39999389648</ele>
        <time>2012-11-17T14:20:49Z</time>
      </trkpt>
      <trkpt lat="43.42391" lon="6.02908">
        <ele>430.39999389648</ele>
        <time>2012-11-17T14:21:36Z</time>
      </trkpt>
      <trkpt lat="43.42391" lon="6.02906">
        <ele>430.39999389648</ele>
        <time>2012-11-17T14:22:01Z</time>
      </trkpt>
      <trkpt lat="43.42402" lon="6.02881">
        <ele>430.39999389648</ele>
        <time>2012-11-17T14:23:34Z</time>
      </trkpt>
      <trkpt lat="43.42425" lon="6.02825">
        <ele>430.39999389648</ele>
        <time>2012-11-17T14:23:50Z</time>
      </trkpt>
      <trkpt lat="43.42429" lon="6.02812">
        <ele>429.60000610352</ele>
        <time>2012-11-17T14:23:53Z</time>
      </trkpt>
      <trkpt lat="43.42434" lon="6.02794">
        <ele>428.39999389648</ele>
        <time>2012-11-17T14:23:57Z</time>
      </trkpt>
      <trkpt lat="43.42433" lon="6.02774">
        <ele>428.39999389648</ele>
        <time>2012-11-17T14:24:01Z</time>
      </trkpt>
      <trkpt lat="43.42443" lon="6.02739">
        <ele>427</ele>
        <time>2012-11-17T14:24:08Z</time>
      </trkpt>
      <trkpt lat="43.42444" lon="6.02717">
        <ele>426.20001220703</ele>
        <time>2012-11-17T14:24:12Z</time>
      </trkpt>
      <trkpt lat="43.42446" lon="6.02678">
        <ele>424.60000610352</ele>
        <time>2012-11-17T14:24:18Z</time>
      </trkpt>
      <trkpt lat="43.42464" lon="6.0263">
        <ele>424.20001220703</ele>
        <time>2012-11-17T14:24:27Z</time>
      </trkpt>
      <trkpt lat="43.42476" lon="6.02611">
        <ele>424.20001220703</ele>
        <time>2012-11-17T14:24:33Z</time>
      </trkpt>
      <trkpt lat="43.42488" lon="6.02601">
        <ele>424.20001220703</ele>
        <time>2012-11-17T14:24:38Z</time>
      </trkpt>
      <trkpt lat="43.42511" lon="6.0259">
        <ele>422.20001220703</ele>
        <time>2012-11-17T14:24:46Z</time>
      </trkpt>
      <trkpt lat="43.42521" lon="6.02567">
        <ele>422.20001220703</ele>
        <time>2012-11-17T14:24:54Z</time>
      </trkpt>
      <trkpt lat="43.42527" lon="6.02557">
        <ele>422.20001220703</ele>
        <time>2012-11-17T14:24:59Z</time>
      </trkpt>
      <trkpt lat="43.42556" lon="6.02505">
        <ele>422.20001220703</ele>
        <time>2012-11-17T14:25:17Z</time>
      </trkpt>
      <trkpt lat="43.42558" lon="6.02486">
        <ele>422.20001220703</ele>
        <time>2012-11-17T14:25:23Z</time>
      </trkpt>
      <trkpt lat="43.42568" lon="6.02453">
        <ele>422.20001220703</ele>
        <time>2012-11-17T14:25:34Z</time>
      </trkpt>
      <trkpt lat="43.4257" lon="6.02423">
        <ele>422.20001220703</ele>
        <time>2012-11-17T14:25:42Z</time>
      </trkpt>
      <trkpt lat="43.42582" lon="6.02385">
        <ele>421.79998779297</ele>
        <time>2012-11-17T14:25:52Z</time>
      </trkpt>
      <trkpt lat="43.42612" lon="6.02358">
        <ele>420</ele>
        <time>2012-11-17T14:26:04Z</time>
      </trkpt>
      <trkpt lat="43.4262" lon="6.02344">
        <ele>420</ele>
        <time>2012-11-17T14:26:10Z</time>
      </trkpt>
      <trkpt lat="43.42635" lon="6.02307">
        <ele>421.39999389648</ele>
        <time>2012-11-17T14:26:26Z</time>
      </trkpt>
      <trkpt lat="43.42635" lon="6.02255">
        <ele>424.20001220703</ele>
        <time>2012-11-17T14:26:47Z</time>
      </trkpt>
      <trkpt lat="43.42639" lon="6.02237">
        <ele>424.20001220703</ele>
        <time>2012-11-17T14:26:54Z</time>
      </trkpt>
      <trkpt lat="43.42643" lon="6.02228">
        <ele>424.20001220703</ele>
        <time>2012-11-17T14:26:57Z</time>
      </trkpt>
      <trkpt lat="43.42662" lon="6.0221">
        <ele>424.20001220703</ele>
        <time>2012-11-17T14:27:05Z</time>
      </trkpt>
      <trkpt lat="43.42675" lon="6.02196">
        <ele>422.39999389648</ele>
        <time>2012-11-17T14:27:10Z</time>
      </trkpt>
      <trkpt lat="43.42693" lon="6.02185">
        <ele>420.79998779297</ele>
        <time>2012-11-17T14:27:16Z</time>
      </trkpt>
      <trkpt lat="43.42709" lon="6.02162">
        <ele>418.20001220703</ele>
        <time>2012-11-17T14:27:22Z</time>
      </trkpt>
      <trkpt lat="43.42718" lon="6.02155">
        <ele>416.60000610352</ele>
        <time>2012-11-17T14:27:27Z</time>
      </trkpt>
      <trkpt lat="43.42719" lon="6.02155">
        <ele>416.20001220703</ele>
        <time>2012-11-17T14:27:28Z</time>
      </trkpt>
      <trkpt lat="43.42718" lon="6.02162">
        <ele>415.60000610352</ele>
        <time>2012-11-17T14:27:45Z</time>
      </trkpt>
      <trkpt lat="43.42728" lon="6.02178">
        <ele>415.20001220703</ele>
        <time>2012-11-17T14:30:35Z</time>
      </trkpt>
      <trkpt lat="43.42753" lon="6.02192">
        <ele>412</ele>
        <time>2012-11-17T14:30:46Z</time>
      </trkpt>
      <trkpt lat="43.42766" lon="6.02206">
        <ele>410.79998779297</ele>
        <time>2012-11-17T14:30:53Z</time>
      </trkpt>
      <trkpt lat="43.42775" lon="6.02232">
        <ele>408.20001220703</ele>
        <time>2012-11-17T14:31:01Z</time>
      </trkpt>
      <trkpt lat="43.42777" lon="6.02236">
        <ele>407.79998779297</ele>
        <time>2012-11-17T14:31:02Z</time>
      </trkpt>
      <trkpt lat="43.42794" lon="6.02268">
        <ele>405.20001220703</ele>
        <time>2012-11-17T14:31:12Z</time>
      </trkpt>
      <trkpt lat="43.42786" lon="6.02286">
        <ele>404.79998779297</ele>
        <time>2012-11-17T14:31:18Z</time>
      </trkpt>
      <trkpt lat="43.42786" lon="6.02294">
        <ele>403.20001220703</ele>
        <time>2012-11-17T14:31:21Z</time>
      </trkpt>
      <trkpt lat="43.42799" lon="6.02298">
        <ele>403.20001220703</ele>
        <time>2012-11-17T14:31:26Z</time>
      </trkpt>
      <trkpt lat="43.42809" lon="6.02306">
        <ele>403.20001220703</ele>
        <time>2012-11-17T14:31:30Z</time>
      </trkpt>
      <trkpt lat="43.42806" lon="6.02324">
        <ele>402.39999389648</ele>
        <time>2012-11-17T14:31:34Z</time>
      </trkpt>
      <trkpt lat="43.42791" lon="6.02354">
        <ele>399.39999389648</ele>
        <time>2012-11-17T14:31:42Z</time>
      </trkpt>
      <trkpt lat="43.4279" lon="6.02357">
        <ele>399</ele>
        <time>2012-11-17T14:31:43Z</time>
      </trkpt>
      <trkpt lat="43.42793" lon="6.02379">
        <ele>397.39999389648</ele>
        <time>2012-11-17T14:31:51Z</time>
      </trkpt>
      <trkpt lat="43.42799" lon="6.02395">
        <ele>396.60000610352</ele>
        <time>2012-11-17T14:31:56Z</time>
      </trkpt>
      <trkpt lat="43.42804" lon="6.02409">
        <ele>394.60000610352</ele>
        <time>2012-11-17T14:32:00Z</time>
      </trkpt>
      <trkpt lat="43.42801" lon="6.02444">
        <ele>392.20001220703</ele>
        <time>2012-11-17T14:32:08Z</time>
      </trkpt>
      <trkpt lat="43.42806" lon="6.0247">
        <ele>391</ele>
        <time>2012-11-17T14:32:15Z</time>
      </trkpt>
      <trkpt lat="43.42795" lon="6.02515">
        <ele>388.20001220703</ele>
        <time>2012-11-17T14:32:29Z</time>
      </trkpt>
      <trkpt lat="43.42804" lon="6.02528">
        <ele>386.79998779297</ele>
        <time>2012-11-17T14:32:34Z</time>
      </trkpt>
      <trkpt lat="43.4283" lon="6.02528">
        <ele>386</ele>
        <time>2012-11-17T14:32:44Z</time>
      </trkpt>
      <trkpt lat="43.42848" lon="6.0255">
        <ele>385.20001220703</ele>
        <time>2012-11-17T14:32:52Z</time>
      </trkpt>
      <trkpt lat="43.42857" lon="6.02554">
        <ele>384</ele>
        <time>2012-11-17T14:32:55Z</time>
      </trkpt>
      <trkpt lat="43.42875" lon="6.0258">
        <ele>382.60000610352</ele>
        <time>2012-11-17T14:33:02Z</time>
      </trkpt>
      <trkpt lat="43.42881" lon="6.0259">
        <ele>381.79998779297</ele>
        <time>2012-11-17T14:33:05Z</time>
      </trkpt>
      <trkpt lat="43.42889" lon="6.02605">
        <ele>380.39999389648</ele>
        <time>2012-11-17T14:33:09Z</time>
      </trkpt>
      <trkpt lat="43.429" lon="6.02667">
        <ele>377.39999389648</ele>
        <time>2012-11-17T14:33:24Z</time>
      </trkpt>
      <trkpt lat="43.4292" lon="6.02687">
        <ele>375.39999389648</ele>
        <time>2012-11-17T14:33:33Z</time>
      </trkpt>
      <trkpt lat="43.42925" lon="6.02721">
        <ele>373.20001220703</ele>
        <time>2012-11-17T14:33:43Z</time>
      </trkpt>
      <trkpt lat="43.42929" lon="6.02733">
        <ele>372.79998779297</ele>
        <time>2012-11-17T14:33:47Z</time>
      </trkpt>
      <trkpt lat="43.4297" lon="6.02789">
        <ele>369</ele>
        <time>2012-11-17T14:34:02Z</time>
      </trkpt>
      <trkpt lat="43.42981" lon="6.02816">
        <ele>366.79998779297</ele>
        <time>2012-11-17T14:34:08Z</time>
      </trkpt>
      <trkpt lat="43.42983" lon="6.02843">
        <ele>364.60000610352</ele>
        <time>2012-11-17T14:34:16Z</time>
      </trkpt>
      <trkpt lat="43.42994" lon="6.02862">
        <ele>364.60000610352</ele>
        <time>2012-11-17T14:34:21Z</time>
      </trkpt>
      <trkpt lat="43.43" lon="6.02865">
        <ele>363.79998779297</ele>
        <time>2012-11-17T14:34:23Z</time>
      </trkpt>
      <trkpt lat="43.43035" lon="6.02886">
        <ele>362.20001220703</ele>
        <time>2012-11-17T14:34:32Z</time>
      </trkpt>
      <trkpt lat="43.43075" lon="6.02934">
        <ele>358.39999389648</ele>
        <time>2012-11-17T14:34:46Z</time>
      </trkpt>
      <trkpt lat="43.431" lon="6.02977">
        <ele>356.79998779297</ele>
        <time>2012-11-17T14:34:58Z</time>
      </trkpt>
      <trkpt lat="43.43111" lon="6.02989">
        <ele>356</ele>
        <time>2012-11-17T14:35:02Z</time>
      </trkpt>
      <trkpt lat="43.4313" lon="6.03038">
        <ele>354</ele>
        <time>2012-11-17T14:35:15Z</time>
      </trkpt>
      <trkpt lat="43.43135" lon="6.03052">
        <ele>352.20001220703</ele>
        <time>2012-11-17T14:35:24Z</time>
      </trkpt>
      <trkpt lat="43.43135" lon="6.03054">
        <ele>352.20001220703</ele>
        <time>2012-11-17T14:35:30Z</time>
      </trkpt>
      <trkpt lat="43.43135" lon="6.03054">
        <ele>350.20001220703</ele>
        <time>2012-11-17T14:36:06Z</time>
      </trkpt>
      <trkpt lat="43.43137" lon="6.03059">
        <ele>350.20001220703</ele>
        <time>2012-11-17T14:36:47Z</time>
      </trkpt>
      <trkpt lat="43.43132" lon="6.03136">
        <ele>349.39999389648</ele>
        <time>2012-11-17T14:37:03Z</time>
      </trkpt>
      <trkpt lat="43.43131" lon="6.03165">
        <ele>348.20001220703</ele>
        <time>2012-11-17T14:37:08Z</time>
      </trkpt>
      <trkpt lat="43.43132" lon="6.03183">
        <ele>348.20001220703</ele>
        <time>2012-11-17T14:37:12Z</time>
      </trkpt>
      <trkpt lat="43.43132" lon="6.03202">
        <ele>349.60000610352</ele>
        <time>2012-11-17T14:37:19Z</time>
      </trkpt>
      <trkpt lat="43.43132" lon="6.03221">
        <ele>353</ele>
        <time>2012-11-17T14:37:30Z</time>
      </trkpt>
      <trkpt lat="43.43131" lon="6.03223">
        <ele>354</ele>
        <time>2012-11-17T14:37:32Z</time>
      </trkpt>
      <trkpt lat="43.43131" lon="6.03223">
        <ele>354.79998779297</ele>
        <time>2012-11-17T14:37:51Z</time>
      </trkpt>
      <trkpt lat="43.43126" lon="6.03262">
        <ele>354.79998779297</ele>
        <time>2012-11-17T14:38:45Z</time>
      </trkpt>
      <trkpt lat="43.43124" lon="6.03287">
        <ele>354.79998779297</ele>
        <time>2012-11-17T14:38:51Z</time>
      </trkpt>
      <trkpt lat="43.43117" lon="6.03432">
        <ele>351.39999389648</ele>
        <time>2012-11-17T14:39:20Z</time>
      </trkpt>
      <trkpt lat="43.43108" lon="6.03538">
        <ele>349.60000610352</ele>
        <time>2012-11-17T14:39:42Z</time>
      </trkpt>
      <trkpt lat="43.43109" lon="6.0358">
        <ele>348.39999389648</ele>
        <time>2012-11-17T14:39:50Z</time>
      </trkpt>
      <trkpt lat="43.43102" lon="6.03635">
        <ele>346.60000610352</ele>
        <time>2012-11-17T14:40:00Z</time>
      </trkpt>
      <trkpt lat="43.43105" lon="6.03666">
        <ele>346.20001220703</ele>
        <time>2012-11-17T14:40:06Z</time>
      </trkpt>
      <trkpt lat="43.43097" lon="6.03707">
        <ele>346.20001220703</ele>
        <time>2012-11-17T14:40:16Z</time>
      </trkpt>
      <trkpt lat="43.431" lon="6.03725">
        <ele>345.79998779297</ele>
        <time>2012-11-17T14:40:21Z</time>
      </trkpt>
      <trkpt lat="43.43113" lon="6.03732">
        <ele>344.20001220703</ele>
        <time>2012-11-17T14:40:28Z</time>
      </trkpt>
      <trkpt lat="43.43114" lon="6.03734">
        <ele>344.20001220703</ele>
        <time>2012-11-17T14:40:29Z</time>
      </trkpt>
      <trkpt lat="43.43118" lon="6.03745">
        <ele>344.20001220703</ele>
        <time>2012-11-17T14:40:48Z</time>
      </trkpt>
      <trkpt lat="43.43127" lon="6.03753">
        <ele>344.20001220703</ele>
        <time>2012-11-17T14:40:55Z</time>
      </trkpt>
      <trkpt lat="43.43125" lon="6.03768">
        <ele>342.20001220703</ele>
        <time>2012-11-17T14:41:04Z</time>
      </trkpt>
      <trkpt lat="43.43132" lon="6.03784">
        <ele>342.20001220703</ele>
        <time>2012-11-17T14:41:18Z</time>
      </trkpt>
      <trkpt lat="43.43135" lon="6.03795">
        <ele>342.20001220703</ele>
        <time>2012-11-17T14:41:57Z</time>
      </trkpt>
      <trkpt lat="43.43137" lon="6.03821">
        <ele>342.20001220703</ele>
        <time>2012-11-17T14:42:09Z</time>
      </trkpt>
      <trkpt lat="43.43143" lon="6.03844">
        <ele>342.20001220703</ele>
        <time>2012-11-17T14:42:15Z</time>
      </trkpt>
      <trkpt lat="43.43143" lon="6.03877">
        <ele>340</ele>
        <time>2012-11-17T14:42:25Z</time>
      </trkpt>
      <trkpt lat="43.4314" lon="6.03892">
        <ele>340</ele>
        <time>2012-11-17T14:42:31Z</time>
      </trkpt>
      <trkpt lat="43.43143" lon="6.03906">
        <ele>340</ele>
        <time>2012-11-17T14:42:35Z</time>
      </trkpt>
      <trkpt lat="43.43135" lon="6.03931">
        <ele>338.39999389648</ele>
        <time>2012-11-17T14:42:44Z</time>
      </trkpt>
      <trkpt lat="43.43097" lon="6.04003">
        <ele>335.79998779297</ele>
        <time>2012-11-17T14:43:10Z</time>
      </trkpt>
      <trkpt lat="43.43086" lon="6.04019">
        <ele>335.79998779297</ele>
        <time>2012-11-17T14:43:15Z</time>
      </trkpt>
      <trkpt lat="43.43067" lon="6.04019">
        <ele>335.79998779297</ele>
        <time>2012-11-17T14:43:24Z</time>
      </trkpt>
      <trkpt lat="43.43065" lon="6.04023">
        <ele>335.79998779297</ele>
        <time>2012-11-17T14:43:25Z</time>
      </trkpt>
      <trkpt lat="43.43023" lon="6.04225">
        <ele>335.79998779297</ele>
        <time>2012-11-17T14:44:17Z</time>
      </trkpt>
      <trkpt lat="43.43015" lon="6.0426">
        <ele>335.79998779297</ele>
        <time>2012-11-17T14:44:25Z</time>
      </trkpt>
      <trkpt lat="43.43003" lon="6.04338">
        <ele>334.60000610352</ele>
        <time>2012-11-17T14:44:39Z</time>
      </trkpt>
      <trkpt lat="43.42991" lon="6.04447">
        <ele>336</ele>
        <time>2012-11-17T14:45:09Z</time>
      </trkpt>
      <trkpt lat="43.42989" lon="6.04456">
        <ele>336</ele>
        <time>2012-11-17T14:45:12Z</time>
      </trkpt>
      <trkpt lat="43.42978" lon="6.04499">
        <ele>336</ele>
        <time>2012-11-17T14:45:24Z</time>
      </trkpt>
      <trkpt lat="43.42977" lon="6.04571">
        <ele>330</ele>
        <time>2012-11-17T14:45:33Z</time>
      </trkpt>
      <trkpt lat="43.42977" lon="6.04577">
        <ele>329</ele>
        <time>2012-11-17T14:45:34Z</time>
      </trkpt>
      <trkpt lat="43.42972" lon="6.046">
        <ele>329</ele>
        <time>2012-11-17T14:45:40Z</time>
      </trkpt>
      <trkpt lat="43.42971" lon="6.0462">
        <ele>329</ele>
        <time>2012-11-17T14:45:49Z</time>
      </trkpt>
      <trkpt lat="43.42956" lon="6.04747">
        <ele>331</ele>
        <time>2012-11-17T14:46:28Z</time>
      </trkpt>
      <trkpt lat="43.42953" lon="6.04768">
        <ele>331</ele>
        <time>2012-11-17T14:46:34Z</time>
      </trkpt>
      <trkpt lat="43.42952" lon="6.04803">
        <ele>330.60000610352</ele>
        <time>2012-11-17T14:46:42Z</time>
      </trkpt>
      <trkpt lat="43.42941" lon="6.0487">
        <ele>328.79998779297</ele>
        <time>2012-11-17T14:46:57Z</time>
      </trkpt>
      <trkpt lat="43.42936" lon="6.04897">
        <ele>330.79998779297</ele>
        <time>2012-11-17T14:47:05Z</time>
      </trkpt>
      <trkpt lat="43.42936" lon="6.04902">
        <ele>331.20001220703</ele>
        <time>2012-11-17T14:47:07Z</time>
      </trkpt>
      <trkpt lat="43.42933" lon="6.0495">
        <ele>335</ele>
        <time>2012-11-17T14:47:33Z</time>
      </trkpt>
      <trkpt lat="43.42916" lon="6.05103">
        <ele>337</ele>
        <time>2012-11-17T14:48:29Z</time>
      </trkpt>
      <trkpt lat="43.42913" lon="6.05128">
        <ele>337.79998779297</ele>
        <time>2012-11-17T14:48:37Z</time>
      </trkpt>
      <trkpt lat="43.42905" lon="6.0518">
        <ele>339.79998779297</ele>
        <time>2012-11-17T14:48:55Z</time>
      </trkpt>
      <trkpt lat="43.42898" lon="6.05238">
        <ele>341</ele>
        <time>2012-11-17T14:49:14Z</time>
      </trkpt>
      <trkpt lat="43.42887" lon="6.0533">
        <ele>341</ele>
        <time>2012-11-17T14:49:42Z</time>
      </trkpt>
      <trkpt lat="43.42865" lon="6.05526">
        <ele>337</ele>
        <time>2012-11-17T14:50:18Z</time>
      </trkpt>
      <trkpt lat="43.42857" lon="6.05567">
        <ele>336.60000610352</ele>
        <time>2012-11-17T14:50:26Z</time>
      </trkpt>
      <trkpt lat="43.42855" lon="6.05596">
        <ele>336.60000610352</ele>
        <time>2012-11-17T14:50:32Z</time>
      </trkpt>
      <trkpt lat="43.42842" lon="6.05724">
        <ele>336.60000610352</ele>
        <time>2012-11-17T14:51:05Z</time>
      </trkpt>
      <trkpt lat="43.42835" lon="6.05732">
        <ele>336.60000610352</ele>
        <time>2012-11-17T14:51:10Z</time>
      </trkpt>
      <trkpt lat="43.42803" lon="6.05747">
        <ele>336.60000610352</ele>
        <time>2012-11-17T14:51:33Z</time>
      </trkpt>
      <trkpt lat="43.42771" lon="6.05728">
        <ele>336.60000610352</ele>
        <time>2012-11-17T14:51:48Z</time>
      </trkpt>
      <trkpt lat="43.42754" lon="6.05738">
        <ele>336.60000610352</ele>
        <time>2012-11-17T14:51:54Z</time>
      </trkpt>
      <trkpt lat="43.42723" lon="6.05739">
        <ele>336.60000610352</ele>
        <time>2012-11-17T14:52:04Z</time>
      </trkpt>
      <trkpt lat="43.42699" lon="6.05736">
        <ele>336.60000610352</ele>
        <time>2012-11-17T14:52:11Z</time>
      </trkpt>
      <trkpt lat="43.42698" lon="6.05734">
        <ele>336.60000610352</ele>
        <time>2012-11-17T14:52:12Z</time>
      </trkpt>
      <trkpt lat="43.42708" lon="6.05687">
        <ele>332.39999389648</ele>
        <time>2012-11-17T14:52:24Z</time>
      </trkpt>
      <trkpt lat="43.4272" lon="6.05673">
        <ele>330.60000610352</ele>
        <time>2012-11-17T14:52:28Z</time>
      </trkpt>
      <trkpt lat="43.42722" lon="6.05671">
        <ele>330</ele>
        <time>2012-11-17T14:52:29Z</time>
      </trkpt>
      <trkpt lat="43.42731" lon="6.05648">
        <ele>327.79998779297</ele>
        <time>2012-11-17T14:52:36Z</time>
      </trkpt>
      <trkpt lat="43.42751" lon="6.05619">
        <ele>326.20001220703</ele>
        <time>2012-11-17T14:52:46Z</time>
      </trkpt>
      <trkpt lat="43.42756" lon="6.05594">
        <ele>325</ele>
        <time>2012-11-17T14:52:52Z</time>
      </trkpt>
      <trkpt lat="43.4275" lon="6.05579">
        <ele>323.20001220703</ele>
        <time>2012-11-17T14:52:56Z</time>
      </trkpt>
      <trkpt lat="43.42738" lon="6.05565">
        <ele>321.60000610352</ele>
        <time>2012-11-17T14:53:00Z</time>
      </trkpt>
      <trkpt lat="43.42729" lon="6.05529">
        <ele>319</ele>
        <time>2012-11-17T14:53:08Z</time>
      </trkpt>
      <trkpt lat="43.42726" lon="6.0549">
        <ele>317</ele>
        <time>2012-11-17T14:53:17Z</time>
      </trkpt>
      <trkpt lat="43.42725" lon="6.05474">
        <ele>315.79998779297</ele>
        <time>2012-11-17T14:53:20Z</time>
      </trkpt>
      <trkpt lat="43.42733" lon="6.05437">
        <ele>313.39999389648</ele>
        <time>2012-11-17T14:53:28Z</time>
      </trkpt>
      <trkpt lat="43.4272" lon="6.05382">
        <ele>310.79998779297</ele>
        <time>2012-11-17T14:53:42Z</time>
      </trkpt>
      <trkpt lat="43.42722" lon="6.05346">
        <ele>308.60000610352</ele>
        <time>2012-11-17T14:53:51Z</time>
      </trkpt>
      <trkpt lat="43.42715" lon="6.0534">
        <ele>307</ele>
        <time>2012-11-17T14:53:54Z</time>
      </trkpt>
      <trkpt lat="43.42699" lon="6.05344">
        <ele>307</ele>
        <time>2012-11-17T14:53:59Z</time>
      </trkpt>
      <trkpt lat="43.42686" lon="6.05341">
        <ele>305.79998779297</ele>
        <time>2012-11-17T14:54:03Z</time>
      </trkpt>
      <trkpt lat="43.4267" lon="6.05323">
        <ele>304.60000610352</ele>
        <time>2012-11-17T14:54:12Z</time>
      </trkpt>
      <trkpt lat="43.42649" lon="6.05286">
        <ele>302.20001220703</ele>
        <time>2012-11-17T14:54:23Z</time>
      </trkpt>
      <trkpt lat="43.42639" lon="6.05275">
        <ele>300.39999389648</ele>
        <time>2012-11-17T14:54:27Z</time>
      </trkpt>
      <trkpt lat="43.42631" lon="6.05265">
        <ele>300.39999389648</ele>
        <time>2012-11-17T14:54:30Z</time>
      </trkpt>
      <trkpt lat="43.42576" lon="6.05222">
        <ele>298.20001220703</ele>
        <time>2012-11-17T14:54:46Z</time>
      </trkpt>
      <trkpt lat="43.42551" lon="6.0522">
        <ele>298.20001220703</ele>
        <time>2012-11-17T14:54:53Z</time>
      </trkpt>
      <trkpt lat="43.42534" lon="6.05229">
        <ele>297.79998779297</ele>
        <time>2012-11-17T14:54:57Z</time>
      </trkpt>
      <trkpt lat="43.4252" lon="6.0523">
        <ele>296.20001220703</ele>
        <time>2012-11-17T14:55:00Z</time>
      </trkpt>
      <trkpt lat="43.42502" lon="6.05228">
        <ele>295.79998779297</ele>
        <time>2012-11-17T14:55:04Z</time>
      </trkpt>
      <trkpt lat="43.42491" lon="6.05224">
        <ele>295.79998779297</ele>
        <time>2012-11-17T14:55:07Z</time>
      </trkpt>
      <trkpt lat="43.42477" lon="6.05218">
        <ele>295.79998779297</ele>
        <time>2012-11-17T14:55:11Z</time>
      </trkpt>
      <trkpt lat="43.42456" lon="6.05217">
        <ele>295.79998779297</ele>
        <time>2012-11-17T14:55:17Z</time>
      </trkpt>
      <trkpt lat="43.42432" lon="6.05226">
        <ele>294</ele>
        <time>2012-11-17T14:55:21Z</time>
      </trkpt>
      <trkpt lat="43.42414" lon="6.05227">
        <ele>292</ele>
        <time>2012-11-17T14:55:24Z</time>
      </trkpt>
      <trkpt lat="43.42398" lon="6.05227">
        <ele>291.39999389648</ele>
        <time>2012-11-17T14:55:27Z</time>
      </trkpt>
      <trkpt lat="43.42348" lon="6.05236">
        <ele>289</ele>
        <time>2012-11-17T14:55:38Z</time>
      </trkpt>
      <trkpt lat="43.42335" lon="6.05234">
        <ele>287.60000610352</ele>
        <time>2012-11-17T14:55:41Z</time>
      </trkpt>
      <trkpt lat="43.42272" lon="6.05218">
        <ele>283.39999389648</ele>
        <time>2012-11-17T14:55:51Z</time>
      </trkpt>
      <trkpt lat="43.42242" lon="6.05217">
        <ele>282.39999389648</ele>
        <time>2012-11-17T14:55:56Z</time>
      </trkpt>
      <trkpt lat="43.42232" lon="6.0521">
        <ele>281.60000610352</ele>
        <time>2012-11-17T14:55:58Z</time>
      </trkpt>
      <trkpt lat="43.4222" lon="6.05195">
        <ele>280.39999389648</ele>
        <time>2012-11-17T14:56:01Z</time>
      </trkpt>
      <trkpt lat="43.42215" lon="6.05192">
        <ele>280.39999389648</ele>
        <time>2012-11-17T14:56:02Z</time>
      </trkpt>
      <trkpt lat="43.42199" lon="6.05185">
        <ele>279.39999389648</ele>
        <time>2012-11-17T14:56:05Z</time>
      </trkpt>
      <trkpt lat="43.4216" lon="6.05158">
        <ele>278.20001220703</ele>
        <time>2012-11-17T14:56:13Z</time>
      </trkpt>
      <trkpt lat="43.42138" lon="6.05129">
        <ele>276</ele>
        <time>2012-11-17T14:56:20Z</time>
      </trkpt>
      <trkpt lat="43.42122" lon="6.05116">
        <ele>276</ele>
        <time>2012-11-17T14:56:25Z</time>
      </trkpt>
      <trkpt lat="43.42055" lon="6.05115">
        <ele>273.20001220703</ele>
        <time>2012-11-17T14:56:38Z</time>
      </trkpt>
      <trkpt lat="43.41965" lon="6.05141">
        <ele>269.79998779297</ele>
        <time>2012-11-17T14:56:55Z</time>
      </trkpt>
      <trkpt lat="43.41945" lon="6.05151">
        <ele>268.60000610352</ele>
        <time>2012-11-17T14:56:59Z</time>
      </trkpt>
      <trkpt lat="43.41938" lon="6.05157">
        <ele>267.60000610352</ele>
        <time>2012-11-17T14:57:01Z</time>
      </trkpt>
      <trkpt lat="43.41938" lon="6.05172">
        <ele>267.60000610352</ele>
        <time>2012-11-17T14:57:05Z</time>
      </trkpt>
      <trkpt lat="43.41945" lon="6.05226">
        <ele>269</ele>
        <time>2012-11-17T14:57:19Z</time>
      </trkpt>
      <trkpt lat="43.41948" lon="6.05254">
        <ele>269.79998779297</ele>
        <time>2012-11-17T14:57:26Z</time>
      </trkpt>
      <trkpt lat="43.41967" lon="6.05348">
        <ele>274.20001220703</ele>
        <time>2012-11-17T14:57:57Z</time>
      </trkpt>
      <trkpt lat="43.41988" lon="6.05438">
        <ele>278.39999389648</ele>
        <time>2012-11-17T14:58:25Z</time>
      </trkpt>
      <trkpt lat="43.42" lon="6.05481">
        <ele>280.20001220703</ele>
        <time>2012-11-17T14:58:41Z</time>
      </trkpt>
      <trkpt lat="43.41999" lon="6.05487">
        <ele>280.20001220703</ele>
        <time>2012-11-17T14:58:49Z</time>
      </trkpt>
      <trkpt lat="43.41999" lon="6.05487">
        <ele>282.20001220703</ele>
        <time>2012-11-17T14:59:58Z</time>
      </trkpt>
      <trkpt lat="43.42014" lon="6.05598">
        <ele>279.79998779297</ele>
        <time>2012-11-17T15:01:10Z</time>
      </trkpt>
      <trkpt lat="43.42048" lon="6.05779">
        <ele>273.39999389648</ele>
        <time>2012-11-17T15:01:29Z</time>
      </trkpt>
      <trkpt lat="43.42064" lon="6.05849">
        <ele>273.39999389648</ele>
        <time>2012-11-17T15:01:38Z</time>
      </trkpt>
      <trkpt lat="43.42108" lon="6.06037">
        <ele>277.60000610352</ele>
        <time>2012-11-17T15:02:17Z</time>
      </trkpt>
      <trkpt lat="43.42125" lon="6.06138">
        <ele>277.20001220703</ele>
        <time>2012-11-17T15:02:30Z</time>
      </trkpt>
      <trkpt lat="43.42147" lon="6.06203">
        <ele>275.60000610352</ele>
        <time>2012-11-17T15:02:42Z</time>
      </trkpt>
      <trkpt lat="43.42144" lon="6.0622">
        <ele>275.60000610352</ele>
        <time>2012-11-17T15:02:47Z</time>
      </trkpt>
      <trkpt lat="43.42133" lon="6.06224">
        <ele>275.60000610352</ele>
        <time>2012-11-17T15:02:50Z</time>
      </trkpt>
      <trkpt lat="43.41959" lon="6.06278">
        <ele>265.79998779297</ele>
        <time>2012-11-17T15:03:12Z</time>
      </trkpt>
      <trkpt lat="43.41916" lon="6.06293">
        <ele>260</ele>
        <time>2012-11-17T15:03:17Z</time>
      </trkpt>
      <trkpt lat="43.41899" lon="6.06296">
        <ele>258.79998779297</ele>
        <time>2012-11-17T15:03:19Z</time>
      </trkpt>
      <trkpt lat="43.41858" lon="6.06293">
        <ele>255.60000610352</ele>
        <time>2012-11-17T15:03:24Z</time>
      </trkpt>
      <trkpt lat="43.41812" lon="6.06291">
        <ele>252.60000610352</ele>
        <time>2012-11-17T15:03:29Z</time>
      </trkpt>
      <trkpt lat="43.41803" lon="6.06288">
        <ele>252.19999694824</ele>
        <time>2012-11-17T15:03:30Z</time>
      </trkpt>
      <trkpt lat="43.41781" lon="6.06269">
        <ele>250.60000610352</ele>
        <time>2012-11-17T15:03:33Z</time>
      </trkpt>
      <trkpt lat="43.41755" lon="6.06254">
        <ele>249.60000610352</ele>
        <time>2012-11-17T15:03:36Z</time>
      </trkpt>
      <trkpt lat="43.41729" lon="6.0625">
        <ele>248.19999694824</ele>
        <time>2012-11-17T15:03:39Z</time>
      </trkpt>
      <trkpt lat="43.41678" lon="6.06247">
        <ele>245.39999389648</ele>
        <time>2012-11-17T15:03:45Z</time>
      </trkpt>
      <trkpt lat="43.41644" lon="6.06238">
        <ele>245.39999389648</ele>
        <time>2012-11-17T15:03:50Z</time>
      </trkpt>
      <trkpt lat="43.41631" lon="6.0623">
        <ele>244.39999389648</ele>
        <time>2012-11-17T15:03:52Z</time>
      </trkpt>
      <trkpt lat="43.41616" lon="6.06212">
        <ele>243.19999694824</ele>
        <time>2012-11-17T15:03:55Z</time>
      </trkpt>
      <trkpt lat="43.41602" lon="6.06201">
        <ele>243.19999694824</ele>
        <time>2012-11-17T15:03:58Z</time>
      </trkpt>
      <trkpt lat="43.41591" lon="6.06203">
        <ele>241.39999389648</ele>
        <time>2012-11-17T15:04:03Z</time>
      </trkpt>
      <trkpt lat="43.41579" lon="6.06178">
        <ele>241</ele>
        <time>2012-11-17T15:04:14Z</time>
      </trkpt>
      <trkpt lat="43.41577" lon="6.06178">
        <ele>241</ele>
        <time>2012-11-17T15:04:20Z</time>
      </trkpt>
      <trkpt lat="43.41552" lon="6.06177">
        <ele>241</ele>
        <time>2012-11-17T15:04:31Z</time>
      </trkpt>
      <trkpt lat="43.41541" lon="6.06183">
        <ele>241</ele>
        <time>2012-11-17T15:04:34Z</time>
      </trkpt>
      <trkpt lat="43.415" lon="6.06187">
        <ele>238.80000305176</ele>
        <time>2012-11-17T15:04:41Z</time>
      </trkpt>
      <trkpt lat="43.41471" lon="6.06182">
        <ele>238.80000305176</ele>
        <time>2012-11-17T15:04:46Z</time>
      </trkpt>
      <trkpt lat="43.41415" lon="6.06166">
        <ele>236.60000610352</ele>
        <time>2012-11-17T15:04:57Z</time>
      </trkpt>
      <trkpt lat="43.41391" lon="6.06145">
        <ele>236.19999694824</ele>
        <time>2012-11-17T15:05:02Z</time>
      </trkpt>
      <trkpt lat="43.41312" lon="6.06062">
        <ele>232.19999694824</ele>
        <time>2012-11-17T15:05:17Z</time>
      </trkpt>
      <trkpt lat="43.41303" lon="6.06056">
        <ele>230.80000305176</ele>
        <time>2012-11-17T15:05:20Z</time>
      </trkpt>
      <trkpt lat="43.41275" lon="6.06072">
        <ele>230.19999694824</ele>
        <time>2012-11-17T15:05:30Z</time>
      </trkpt>
      <trkpt lat="43.41194" lon="6.06117">
        <ele>226.19999694824</ele>
        <time>2012-11-17T15:05:51Z</time>
      </trkpt>
      <trkpt lat="43.41191" lon="6.06125">
        <ele>226.19999694824</ele>
        <time>2012-11-17T15:05:54Z</time>
      </trkpt>
      <trkpt lat="43.41193" lon="6.06155">
        <ele>226.19999694824</ele>
        <time>2012-11-17T15:06:02Z</time>
      </trkpt>
      <trkpt lat="43.41198" lon="6.06189">
        <ele>226.19999694824</ele>
        <time>2012-11-17T15:06:09Z</time>
      </trkpt>
      <trkpt lat="43.41196" lon="6.06203">
        <ele>226.19999694824</ele>
        <time>2012-11-17T15:06:13Z</time>
      </trkpt>
      <trkpt lat="43.41138" lon="6.0622">
        <ele>226.19999694824</ele>
        <time>2012-11-17T15:06:29Z</time>
      </trkpt>
      <trkpt lat="43.41078" lon="6.06243">
        <ele>226.19999694824</ele>
        <time>2012-11-17T15:06:43Z</time>
      </trkpt>
      <trkpt lat="43.41048" lon="6.06253">
        <ele>226.19999694824</ele>
        <time>2012-11-17T15:06:50Z</time>
      </trkpt>
      <trkpt lat="43.40981" lon="6.06263">
        <ele>224</ele>
        <time>2012-11-17T15:07:06Z</time>
      </trkpt>
      <trkpt lat="43.40962" lon="6.06254">
        <ele>224</ele>
        <time>2012-11-17T15:07:19Z</time>
      </trkpt>
      <trkpt lat="43.40962" lon="6.06254">
        <ele>224</ele>
        <time>2012-11-17T15:07:24Z</time>
      </trkpt>
      <trkpt lat="43.40954" lon="6.06265">
        <ele>224</ele>
        <time>2012-11-17T15:07:35Z</time>
      </trkpt>
      <trkpt lat="43.40947" lon="6.06287">
        <ele>224</ele>
        <time>2012-11-17T15:07:43Z</time>
      </trkpt>
      <trkpt lat="43.40908" lon="6.06337">
        <ele>224</ele>
        <time>2012-11-17T15:08:02Z</time>
      </trkpt>
      <trkpt lat="43.40889" lon="6.06364">
        <ele>224</ele>
        <time>2012-11-17T15:08:10Z</time>
      </trkpt>
      <trkpt lat="43.4086" lon="6.06396">
        <ele>223.19999694824</ele>
        <time>2012-11-17T15:08:20Z</time>
      </trkpt>
      <trkpt lat="43.40832" lon="6.06414">
        <ele>222</ele>
        <time>2012-11-17T15:08:28Z</time>
      </trkpt>
      <trkpt lat="43.40813" lon="6.06415">
        <ele>222</ele>
        <time>2012-11-17T15:08:33Z</time>
      </trkpt>
      <trkpt lat="43.40802" lon="6.06408">
        <ele>222</ele>
        <time>2012-11-17T15:08:37Z</time>
      </trkpt>
      <trkpt lat="43.40788" lon="6.06408">
        <ele>222</ele>
        <time>2012-11-17T15:08:42Z</time>
      </trkpt>
      <trkpt lat="43.40733" lon="6.06422">
        <ele>222</ele>
        <time>2012-11-17T15:09:02Z</time>
      </trkpt>
      <trkpt lat="43.40697" lon="6.06433">
        <ele>222.80000305176</ele>
        <time>2012-11-17T15:09:14Z</time>
      </trkpt>
      <trkpt lat="43.40685" lon="6.06441">
        <ele>224</ele>
        <time>2012-11-17T15:09:18Z</time>
      </trkpt>
      <trkpt lat="43.40668" lon="6.06455">
        <ele>225.39999389648</ele>
        <time>2012-11-17T15:09:27Z</time>
      </trkpt>
      <trkpt lat="43.4062" lon="6.06499">
        <ele>228.80000305176</ele>
        <time>2012-11-17T15:09:53Z</time>
      </trkpt>
      <trkpt lat="43.40608" lon="6.06504">
        <ele>230.39999389648</ele>
        <time>2012-11-17T15:09:59Z</time>
      </trkpt>
      <trkpt lat="43.40596" lon="6.06503">
        <ele>231.39999389648</ele>
        <time>2012-11-17T15:10:05Z</time>
      </trkpt>
      <trkpt lat="43.40588" lon="6.06502">
        <ele>232.60000610352</ele>
        <time>2012-11-17T15:10:08Z</time>
      </trkpt>
      <trkpt lat="43.4051" lon="6.06475">
        <ele>235.80000305176</ele>
        <time>2012-11-17T15:10:46Z</time>
      </trkpt>
      <trkpt lat="43.40457" lon="6.0646">
        <ele>237.39999389648</ele>
        <time>2012-11-17T15:11:07Z</time>
      </trkpt>
      <trkpt lat="43.40423" lon="6.06455">
        <ele>238.60000610352</ele>
        <time>2012-11-17T15:11:21Z</time>
      </trkpt>
      <trkpt lat="43.40421" lon="6.06457">
        <ele>238.60000610352</ele>
        <time>2012-11-17T15:11:22Z</time>
      </trkpt>
      <trkpt lat="43.40411" lon="6.06479">
        <ele>238.60000610352</ele>
        <time>2012-11-17T15:11:31Z</time>
      </trkpt>
      <trkpt lat="43.40403" lon="6.06511">
        <ele>238.60000610352</ele>
        <time>2012-11-17T15:11:40Z</time>
      </trkpt>
      <trkpt lat="43.40403" lon="6.06536">
        <ele>238.60000610352</ele>
        <time>2012-11-17T15:11:46Z</time>
      </trkpt>
      <trkpt lat="43.40408" lon="6.06541">
        <ele>238.60000610352</ele>
        <time>2012-11-17T15:13:59Z</time>
      </trkpt>
    </trkseg>
  </trk>
</gpx>